Time;durP1;ratioP1;P1;durP2;ratioP2;P2;SDS_P1;SDS_P2;PMS_P1;PMS_P2;Temp;Humidity;BMP_temperature;BMP_pressure;BME280_temperature;BME280_humidity;BME280_pressure;Samples;Min_cycle;Max_cycle;Signal;HPM_P1;HPM_P2
2024/01/18 00:01:26;;;;;;;0.45;0.45;;;;;;;;;;5059124;28;20033;-78
2024/01/18 00:03:52;;;;;;;0.47;0.40;;;;;;;;;;5052141;28;20040;-78
2024/01/18 00:06:17;;;;;;;0.43;0.43;;;;;;;;;;5058415;28;20490;-78
2024/01/18 00:08:42;;;;;;;0.40;0.40;;;;;;;;;;5055887;28;21743;-77
2024/01/18 00:11:07;;;;;;;0.40;0.40;;;;;;;;;;5054375;28;20033;-79
2024/01/18 00:13:33;;;;;;;0.40;0.40;;;;;;;;;;5053557;28;20029;-79
2024/01/18 00:15:58;;;;;;;0.47;0.47;;;;;;;;;;5055026;28;20468;-80
2024/01/18 00:18:23;;;;;;;1.25;0.63;;;;;;;;;;5054626;28;20101;-79
2024/01/18 00:20:49;;;;;;;0.38;0.38;;;;;;;;;;4958304;28;20043;-77
2024/01/18 00:23:14;;;;;;;0.80;0.65;;;;;;;;;;5052971;28;20055;-79
2024/01/18 00:25:39;;;;;;;0.30;0.30;;;;;;;;;;5058921;28;20032;-80
2024/01/18 00:28:05;;;;;;;0.32;0.32;;;;;;;;;;5051565;28;20182;-79
2024/01/18 00:30:30;;;;;;;0.30;0.30;;;;;;;;;;5053390;28;20037;-78
2024/01/18 00:32:55;;;;;;;0.30;0.30;;;;;;;;;;5053002;28;20024;-80
2024/01/18 00:35:20;;;;;;;0.50;0.50;;;;;;;;;;5051742;28;20409;-78
2024/01/18 00:37:46;;;;;;;0.40;0.40;;;;;;;;;;5051075;28;20114;-78
2024/01/18 00:40:13;;;;;;;0.40;0.40;;;;;;;;;;5050274;28;20033;-78
2024/01/18 00:42:39;;;;;;;0.38;0.38;;;;;;;;;;5059183;28;20044;-78
2024/01/18 00:45:05;;;;;;;0.22;0.22;;;;;;;;;;5065100;28;20029;-78
2024/01/18 00:47:30;;;;;;;0.38;0.38;;;;;;;;;;5051252;28;20037;-78
2024/01/18 00:49:55;;;;;;;0.50;0.50;;;;;;;;;;5051278;28;20052;-78
2024/01/18 00:52:21;;;;;;;0.47;0.47;;;;;;;;;;5060224;28;20029;-78
2024/01/18 00:54:46;;;;;;;0.38;0.38;;;;;;;;;;5052923;28;20083;-78
2024/01/18 00:57:11;;;;;;;0.45;0.45;;;;;;;;;;5064398;28;20021;-77
2024/01/18 00:59:37;;;;;;;0.35;0.35;;;;;;;;;;5058100;28;20036;-78
2024/01/18 01:02:03;;;;;;;0.40;0.40;;;;;;;;;;5058595;28;20033;-78
2024/01/18 01:04:29;;;;;;;0.35;0.35;;;;;;;;;;5048719;28;20032;-78
2024/01/18 01:06:54;;;;;;;0.40;0.40;;;;;;;;;;5053214;28;20485;-78
2024/01/18 01:09:19;;;;;;;0.40;0.40;;;;;;;;;;5053451;28;20052;-77
2024/01/18 01:11:45;;;;;;;0.28;0.28;;;;;;;;;;5053513;28;20033;-78
2024/01/18 01:14:11;;;;;;;0.45;0.30;;;;;;;;;;5049355;28;20048;-78
2024/01/18 01:16:36;;;;;;;0.30;0.30;;;;;;;;;;5051709;28;20485;-79
2024/01/18 01:19:01;;;;;;;0.30;0.30;;;;;;;;;;5060174;28;20037;-78
2024/01/18 01:21:26;;;;;;;0.30;0.30;;;;;;;;;;5053928;28;20630;-78
2024/01/18 01:23:52;;;;;;;0.40;0.40;;;;;;;;;;5053949;28;20439;-78
2024/01/18 01:26:17;;;;;;;0.30;0.25;;;;;;;;;;5054971;28;20036;-77
2024/01/18 01:28:43;;;;;;;0.30;0.30;;;;;;;;;;5060264;28;20102;-77
2024/01/18 01:31:08;;;;;;;0.40;0.40;;;;;;;;;;5054158;28;20037;-78
2024/01/18 01:33:37;;;;;;;0.40;0.40;;;;;;;;;;5066598;28;20048;-77
2024/01/18 01:36:04;;;;;;;0.38;0.38;;;;;;;;;;5061415;28;20051;-78
2024/01/18 01:38:30;;;;;;;0.30;0.30;;;;;;;;;;5059067;28;20055;-77
2024/01/18 01:40:55;;;;;;;0.50;0.40;;;;;;;;;;5055393;28;20070;-78
2024/01/18 01:43:22;;;;;;;1.85;0.73;;;;;;;;;;5053564;28;20029;-78
2024/01/18 01:45:48;;;;;;;0.45;0.45;;;;;;;;;;5059509;28;20132;-78
2024/01/18 01:48:13;;;;;;;0.40;0.40;;;;;;;;;;5051698;28;20517;-78
2024/01/18 01:50:39;;;;;;;0.75;0.52;;;;;;;;;;5052917;28;20037;-77
2024/01/18 01:53:07;;;;;;;0.30;0.30;;;;;;;;;;5052274;28;20098;-77
2024/01/18 01:55:32;;;;;;;0.28;0.28;;;;;;;;;;5052815;28;20051;-77
2024/01/18 01:57:59;;;;;;;1.00;0.28;;;;;;;;;;5052727;28;20037;-77
2024/01/18 02:00:25;;;;;;;1.45;0.40;;;;;;;;;;5045911;28;20566;-75
2024/01/18 02:02:51;;;;;;;0.30;0.30;;;;;;;;;;5059142;28;20029;-78
2024/01/18 02:05:16;;;;;;;0.28;0.28;;;;;;;;;;5059505;28;20438;-77
2024/01/18 02:07:42;;;;;;;0.30;0.30;;;;;;;;;;5055686;28;20067;-76
2024/01/18 02:10:08;;;;;;;0.38;0.30;;;;;;;;;;5055710;28;20534;-77
2024/01/18 02:12:34;;;;;;;0.30;0.30;;;;;;;;;;5057898;28;20063;-77
2024/01/18 02:14:59;;;;;;;0.47;0.40;;;;;;;;;;5055140;28;20045;-77
2024/01/18 02:17:25;;;;;;;0.30;0.30;;;;;;;;;;5058038;28;20048;-77
2024/01/18 02:19:50;;;;;;;0.30;0.30;;;;;;;;;;5064579;28;20039;-77
2024/01/18 02:22:16;;;;;;;0.20;0.20;;;;;;;;;;5054966;28;20477;-77
2024/01/18 02:24:48;;;;;;;0.40;0.40;;;;;;;;;;5061301;28;20033;-76
2024/01/18 02:27:13;;;;;;;0.30;0.30;;;;;;;;;;5058444;28;20031;-77
2024/01/18 02:29:39;;;;;;;0.40;0.40;;;;;;;;;;5061024;28;20040;-77
2024/01/18 02:32:05;;;;;;;0.40;0.40;;;;;;;;;;5057081;28;20051;-76
2024/01/18 02:34:30;;;;;;;0.60;0.60;;;;;;;;;;5052065;28;20110;-77
2024/01/18 02:36:55;;;;;;;0.93;0.80;;;;;;;;;;5050979;28;20040;-77
2024/01/18 02:39:21;;;;;;;2.55;0.70;;;;;;;;;;5050596;28;20592;-76
2024/01/18 02:41:47;;;;;;;0.90;0.90;;;;;;;;;;5057013;28;20044;-75
2024/01/18 02:44:14;;;;;;;0.70;0.70;;;;;;;;;;5058799;28;20108;-76
2024/01/18 02:46:39;;;;;;;1.38;0.80;;;;;;;;;;5055941;28;20040;-77
2024/01/18 02:49:04;;;;;;;0.98;0.70;;;;;;;;;;5051904;28;20028;-77
2024/01/18 02:51:31;;;;;;;1.08;1.08;;;;;;;;;;5055562;28;20054;-76
2024/01/18 02:53:56;;;;;;;0.73;0.73;;;;;;;;;;5053967;28;20033;-76
2024/01/18 02:56:22;;;;;;;1.17;0.90;;;;;;;;;;5053942;28;20501;-76
2024/01/18 02:58:47;;;;;;;0.60;0.60;;;;;;;;;;5058588;28;20124;-76
2024/01/18 03:01:12;;;;;;;0.60;0.60;;;;;;;;;;5057803;28;20033;-77
2024/01/18 03:03:37;;;;;;;0.40;0.40;;;;;;;;;;5059147;28;20033;-76
2024/01/18 03:06:03;;;;;;;0.50;0.50;;;;;;;;;;5061649;28;20041;-76
2024/01/18 03:08:29;;;;;;;0.50;0.50;;;;;;;;;;5060176;28;20505;-78
2024/01/18 03:10:54;;;;;;;0.57;0.57;;;;;;;;;;5063982;28;20040;-76
2024/01/18 03:13:19;;;;;;;0.40;0.40;;;;;;;;;;5056692;28;20029;-77
2024/01/18 03:15:44;;;;;;;0.20;0.20;;;;;;;;;;5050832;28;20040;-76
2024/01/18 03:18:10;;;;;;;0.30;0.30;;;;;;;;;;5057872;28;20036;-76
2024/01/18 03:20:35;;;;;;;0.25;0.25;;;;;;;;;;5056817;28;20498;-76
2024/01/18 03:23:01;;;;;;;0.47;0.47;;;;;;;;;;5056274;28;20490;-76
2024/01/18 03:25:26;;;;;;;0.40;0.40;;;;;;;;;;5058897;28;20033;-78
2024/01/18 03:27:52;;;;;;;1.00;0.82;;;;;;;;;;5053380;28;20033;-77
2024/01/18 03:30:17;;;;;;;0.40;0.40;;;;;;;;;;5047476;28;20029;-76
2024/01/18 03:32:42;;;;;;;0.57;0.57;;;;;;;;;;5056427;28;20029;-76
2024/01/18 03:35:08;;;;;;;0.50;0.50;;;;;;;;;;5051284;28;20490;-76
2024/01/18 03:37:33;;;;;;;0.60;0.60;;;;;;;;;;5042285;28;20095;-78
2024/01/18 03:39:58;;;;;;;0.40;0.40;;;;;;;;;;5050273;28;20048;-77
2024/01/18 03:42:24;;;;;;;0.50;0.50;;;;;;;;;;5053090;28;20037;-76
2024/01/18 03:44:49;;;;;;;0.50;0.50;;;;;;;;;;5054105;28;20505;-78
2024/01/18 03:47:15;;;;;;;0.40;0.40;;;;;;;;;;5063884;28;20025;-77
2024/01/18 03:49:42;;;;;;;0.40;0.40;;;;;;;;;;5062105;28;20036;-77
2024/01/18 03:52:08;;;;;;;0.45;0.45;;;;;;;;;;5051148;28;20102;-78
2024/01/18 03:54:33;;;;;;;0.50;0.50;;;;;;;;;;5055438;28;20041;-77
2024/01/18 03:56:58;;;;;;;0.30;0.30;;;;;;;;;;5060229;28;20028;-77
2024/01/18 03:59:24;;;;;;;0.50;0.50;;;;;;;;;;5047979;28;20053;-77
2024/01/18 04:01:50;;;;;;;0.40;0.40;;;;;;;;;;5058899;28;20044;-77
2024/01/18 04:04:15;;;;;;;0.30;0.30;;;;;;;;;;5056832;28;20057;-77
2024/01/18 04:06:41;;;;;;;0.45;0.45;;;;;;;;;;5050386;28;20072;-76
2024/01/18 04:09:08;;;;;;;0.70;0.40;;;;;;;;;;5050695;28;20048;-78
2024/01/18 04:11:34;;;;;;;0.57;0.35;;;;;;;;;;5033933;28;20116;-77
2024/01/18 04:13:59;;;;;;;0.45;0.40;;;;;;;;;;5051223;28;20448;-75
2024/01/18 04:16:25;;;;;;;0.30;0.30;;;;;;;;;;5049779;28;20033;-77
2024/01/18 04:18:50;;;;;;;0.63;0.57;;;;;;;;;;5051288;28;20460;-77
2024/01/18 04:21:16;;;;;;;0.20;0.20;;;;;;;;;;5051221;28;20501;-77
2024/01/18 04:23:41;;;;;;;3.70;0.47;;;;;;;;;;5051823;28;20040;-76
2024/01/18 04:26:07;;;;;;;0.43;0.38;;;;;;;;;;5049719;28;20517;-76
2024/01/18 04:28:32;;;;;;;0.35;0.35;;;;;;;;;;5050052;28;20043;-76
2024/01/18 04:30:57;;;;;;;0.40;0.40;;;;;;;;;;5051346;28;20044;-78
2024/01/18 04:33:23;;;;;;;0.40;0.38;;;;;;;;;;5051504;28;20135;-77
2024/01/18 04:35:48;;;;;;;0.40;0.40;;;;;;;;;;5051425;28;20037;-76
2024/01/18 04:38:13;;;;;;;0.70;0.70;;;;;;;;;;5050486;28;20044;-75
2024/01/18 04:40:39;;;;;;;0.68;0.43;;;;;;;;;;5050116;28;20041;-78
2024/01/18 04:43:04;;;;;;;0.20;0.20;;;;;;;;;;5051269;28;20123;-75
2024/01/18 04:45:30;;;;;;;0.25;0.25;;;;;;;;;;5049648;28;20063;-78
2024/01/18 04:47:56;;;;;;;0.40;0.40;;;;;;;;;;5051948;28;20528;-77
2024/01/18 04:50:24;;;;;;;0.30;0.30;;;;;;;;;;5053479;28;20404;-78
2024/01/18 04:52:50;;;;;;;3.00;0.50;;;;;;;;;;5055398;28;20565;-76
2024/01/18 04:55:16;;;;;;;0.73;0.50;;;;;;;;;;5054978;28;20111;-78
2024/01/18 04:57:41;;;;;;;0.40;0.40;;;;;;;;;;5054986;28;20120;-77
2024/01/18 05:00:10;;;;;;;0.68;0.40;;;;;;;;;;5055205;28;20128;-77
2024/01/18 05:02:36;;;;;;;0.28;0.28;;;;;;;;;;5055546;28;20036;-76
2024/01/18 05:05:02;;;;;;;0.32;0.32;;;;;;;;;;5054755;28;20053;-77
2024/01/18 05:07:27;;;;;;;0.63;0.50;;;;;;;;;;5058796;28;20075;-76
2024/01/18 05:09:52;;;;;;;0.30;0.30;;;;;;;;;;5064708;28;20505;-78
2024/01/18 05:12:18;;;;;;;0.82;0.40;;;;;;;;;;5063730;28;20029;-79
2024/01/18 05:14:43;;;;;;;0.38;0.38;;;;;;;;;;5065092;28;20059;-77
2024/01/18 05:17:10;;;;;;;0.30;0.30;;;;;;;;;;5065819;28;20033;-79
2024/01/18 05:19:36;;;;;;;0.30;0.30;;;;;;;;;;5058035;28;20060;-79
2024/01/18 05:22:01;;;;;;;0.50;0.50;;;;;;;;;;5058448;28;20063;-80
2024/01/18 05:24:26;;;;;;;0.30;0.30;;;;;;;;;;5063161;28;20037;-76
2024/01/18 05:26:51;;;;;;;0.28;0.28;;;;;;;;;;5061250;28;20426;-78
2024/01/18 05:29:17;;;;;;;0.45;0.45;;;;;;;;;;5062817;28;20040;-80
2024/01/18 05:31:42;;;;;;;0.60;0.50;;;;;;;;;;5058533;28;20394;-78
2024/01/18 05:34:07;;;;;;;0.43;0.38;;;;;;;;;;5056970;28;20032;-79
2024/01/18 05:36:33;;;;;;;0.30;0.30;;;;;;;;;;5061067;28;20140;-77
2024/01/18 05:38:58;;;;;;;0.43;0.43;;;;;;;;;;5073205;28;20072;-78
2024/01/18 05:41:23;;;;;;;0.60;0.40;;;;;;;;;;5061383;28;20029;-78
2024/01/18 05:43:48;;;;;;;0.40;0.38;;;;;;;;;;5064572;28;20061;-76
2024/01/18 05:46:14;;;;;;;0.30;0.30;;;;;;;;;;5052992;28;20064;-76
2024/01/18 05:48:39;;;;;;;0.85;0.50;;;;;;;;;;5052729;28;20049;-77
2024/01/18 05:51:05;;;;;;;0.32;0.32;;;;;;;;;;5052335;28;20048;-77
2024/01/18 05:53:31;;;;;;;0.20;0.20;;;;;;;;;;5057260;28;20031;-77
2024/01/18 05:55:59;;;;;;;1.35;0.50;;;;;;;;;;5052160;28;20063;-76
2024/01/18 05:58:24;;;;;;;0.40;0.40;;;;;;;;;;5055850;28;20730;-76
2024/01/18 06:00:49;;;;;;;0.70;0.70;;;;;;;;;;5018257;28;20043;-78
2024/01/18 06:03:15;;;;;;;0.30;0.30;;;;;;;;;;5025127;28;20404;-78
2024/01/18 06:05:40;;;;;;;0.47;0.40;;;;;;;;;;5024155;28;20059;-77
2024/01/18 06:08:06;;;;;;;0.90;0.40;;;;;;;;;;5055128;28;20048;-76
2024/01/18 06:10:33;;;;;;;0.25;0.25;;;;;;;;;;5010001;28;20674;-76
2024/01/18 06:12:59;;;;;;;0.50;0.50;;;;;;;;;;5020130;28;20040;-77
2024/01/18 06:15:24;;;;;;;0.40;0.40;;;;;;;;;;5055304;28;20048;-77
2024/01/18 06:17:50;;;;;;;0.98;0.80;;;;;;;;;;5053065;28;20124;-75
2024/01/18 06:20:15;;;;;;;2.50;0.70;;;;;;;;;;5050506;28;20120;-77
2024/01/18 06:22:40;;;;;;;0.88;0.70;;;;;;;;;;5055313;28;20033;-78
2024/01/18 06:25:06;;;;;;;2.60;0.57;;;;;;;;;;5054288;28;20041;-77
2024/01/18 06:27:33;;;;;;;0.50;0.50;;;;;;;;;;5051936;28;20033;-77
2024/01/18 06:29:58;;;;;;;8.88;0.65;;;;;;;;;;5054526;28;20670;-77
2024/01/18 06:32:25;;;;;;;0.45;0.45;;;;;;;;;;5052090;28;20029;-77
2024/01/18 06:34:50;;;;;;;0.73;0.60;;;;;;;;;;5049101;28;20572;-76
2024/01/18 06:37:16;;;;;;;0.77;0.60;;;;;;;;;;5054488;28;20048;-75
2024/01/18 06:39:41;;;;;;;3.40;0.60;;;;;;;;;;5052646;28;20033;-77
2024/01/18 06:42:07;;;;;;;0.80;0.80;;;;;;;;;;5049775;28;20033;-76
2024/01/18 06:44:34;;;;;;;1.15;0.50;;;;;;;;;;5054590;28;20021;-77
2024/01/18 06:47:00;;;;;;;0.70;0.70;;;;;;;;;;5051969;28;20406;-76
2024/01/18 06:49:26;;;;;;;1.05;0.70;;;;;;;;;;5051434;28;20623;-76
2024/01/18 06:51:51;;;;;;;0.88;0.40;;;;;;;;;;5048316;28;20065;-76
2024/01/18 06:54:21;;;;;;;2.78;0.60;;;;;;;;;;5053454;28;20029;-76
2024/01/18 06:56:47;;;;;;;0.50;0.50;;;;;;;;;;5051976;28;20036;-76
2024/01/18 06:59:13;;;;;;;0.70;0.70;;;;;;;;;;5049013;28;20041;-77
2024/01/18 07:01:39;;;;;;;0.40;0.40;;;;;;;;;;5035210;28;20032;-76
2024/01/18 07:04:04;;;;;;;3.92;0.50;;;;;;;;;;5051143;28;20438;-77
2024/01/18 07:06:30;;;;;;;0.50;0.50;;;;;;;;;;5055744;28;20041;-76
2024/01/18 07:08:55;;;;;;;0.57;0.57;;;;;;;;;;5052484;28;20116;-77
2024/01/18 07:11:21;;;;;;;0.77;0.40;;;;;;;;;;5050415;28;20413;-76
2024/01/18 07:13:46;;;;;;;0.45;0.45;;;;;;;;;;5050623;28;20624;-77
2024/01/18 07:16:11;;;;;;;0.38;0.38;;;;;;;;;;5049341;28;20037;-77
2024/01/18 07:18:37;;;;;;;0.60;0.60;;;;;;;;;;5049148;28;20040;-77
2024/01/18 07:21:02;;;;;;;0.75;0.73;;;;;;;;;;5053754;28;20057;-76
2024/01/18 07:23:28;;;;;;;3.92;0.60;;;;;;;;;;5036261;28;20505;-78
2024/01/18 07:25:53;;;;;;;0.60;0.60;;;;;;;;;;5050381;28;20415;-78
2024/01/18 07:28:19;;;;;;;0.70;0.70;;;;;;;;;;5052406;28;20079;-77
2024/01/18 07:30:45;;;;;;;0.57;0.52;;;;;;;;;;5051645;28;20078;-78
2024/01/18 07:33:10;;;;;;;0.60;0.52;;;;;;;;;;5050959;28;20051;-77
2024/01/18 07:35:36;;;;;;;1.27;1.00;;;;;;;;;;5052269;28;20032;-76
2024/01/18 07:38:01;;;;;;;0.47;0.47;;;;;;;;;;5051476;28;20038;-76
2024/01/18 07:40:26;;;;;;;0.50;0.50;;;;;;;;;;5049282;28;20037;-75
2024/01/18 07:42:51;;;;;;;0.50;0.50;;;;;;;;;;5047747;28;20481;-76
2024/01/18 07:45:17;;;;;;;0.52;0.43;;;;;;;;;;5049676;28;20120;-77
2024/01/18 07:47:43;;;;;;;0.60;0.60;;;;;;;;;;5050034;28;20555;-76
2024/01/18 07:50:09;;;;;;;0.63;0.40;;;;;;;;;;4965000;28;20035;-76
2024/01/18 07:52:36;;;;;;;0.50;0.50;;;;;;;;;;4950919;28;20058;-77
2024/01/18 07:55:02;;;;;;;0.60;0.60;;;;;;;;;;4992844;28;20163;-77
2024/01/18 07:57:27;;;;;;;0.50;0.50;;;;;;;;;;5030027;28;20525;-77
2024/01/18 07:59:52;;;;;;;1.02;0.80;;;;;;;;;;5049536;28;20520;-77
2024/01/18 08:02:18;;;;;;;0.75;0.70;;;;;;;;;;5048847;28;20059;-78
2024/01/18 08:04:43;;;;;;;1.95;0.60;;;;;;;;;;5031921;28;20037;-78
2024/01/18 08:07:08;;;;;;;1.95;0.60;;;;;;;;;;5049955;28;20037;-77
2024/01/18 08:09:35;;;;;;;0.60;0.60;;;;;;;;;;5051000;28;20040;-77
2024/01/18 08:12:00;;;;;;;0.43;0.43;;;;;;;;;;5051750;28;20045;-76
2024/01/18 08:14:25;;;;;;;0.38;0.38;;;;;;;;;;5049765;28;20139;-79
2024/01/18 08:16:50;;;;;;;0.45;0.45;;;;;;;;;;5068411;28;20083;-78
2024/01/18 08:19:18;;;;;;;0.65;0.43;;;;;;;;;;5052599;28;20098;-77
2024/01/18 08:21:43;;;;;;;0.60;0.60;;;;;;;;;;5053891;28;20053;-78
2024/01/18 08:24:09;;;;;;;0.50;0.50;;;;;;;;;;5034155;28;20036;-78
2024/01/18 08:26:34;;;;;;;0.60;0.60;;;;;;;;;;5056104;28;20425;-78
2024/01/18 08:28:59;;;;;;;0.40;0.40;;;;;;;;;;5056001;28;20037;-77
2024/01/18 08:31:25;;;;;;;0.88;0.80;;;;;;;;;;5056814;28;20072;-77
2024/01/18 08:33:50;;;;;;;3.95;0.60;;;;;;;;;;5055417;28;20041;-77
2024/01/18 08:36:15;;;;;;;0.60;0.60;;;;;;;;;;5058541;28;20105;-78
2024/01/18 08:38:41;;;;;;;0.40;0.40;;;;;;;;;;5056046;28;20057;-78
2024/01/18 08:41:06;;;;;;;1.98;0.60;;;;;;;;;;5050255;28;20073;-79
2024/01/18 08:43:32;;;;;;;0.80;0.50;;;;;;;;;;5051314;28;20029;-80
2024/01/18 08:45:57;;;;;;;0.40;0.40;;;;;;;;;;5050499;28;20064;-78
2024/01/18 08:48:22;;;;;;;1.40;0.60;;;;;;;;;;5051660;28;20041;-79
2024/01/18 08:50:48;;;;;;;0.60;0.60;;;;;;;;;;5049368;28;20025;-78
2024/01/18 08:53:13;;;;;;;0.65;0.65;;;;;;;;;;5051646;28;20033;-78
2024/01/18 08:55:40;;;;;;;0.50;0.50;;;;;;;;;;5058662;28;20516;-78
2024/01/18 08:58:06;;;;;;;2.20;0.70;;;;;;;;;;5056242;28;20052;-78
2024/01/18 09:00:32;;;;;;;0.50;0.50;;;;;;;;;;5058542;28;20430;-79
2024/01/18 09:02:57;;;;;;;0.70;0.70;;;;;;;;;;5055749;28;20067;-78
2024/01/18 09:05:22;;;;;;;0.60;0.60;;;;;;;;;;5056171;28;20090;-77
2024/01/18 09:07:48;;;;;;;1.55;0.70;;;;;;;;;;5052129;28;20026;-78
2024/01/18 09:10:13;;;;;;;0.45;0.45;;;;;;;;;;5053848;28;20025;-77
2024/01/18 09:12:39;;;;;;;0.32;0.32;;;;;;;;;;5053811;28;20134;-80
2024/01/18 09:15:04;;;;;;;0.52;0.52;;;;;;;;;;5054088;28;20045;-79
2024/01/18 09:17:30;;;;;;;0.55;0.55;;;;;;;;;;5054860;28;20131;-78
2024/01/18 09:19:55;;;;;;;0.47;0.47;;;;;;;;;;5053504;28;20049;-77
2024/01/18 09:22:21;;;;;;;0.40;0.40;;;;;;;;;;5055925;28;20064;-80
2024/01/18 09:24:46;;;;;;;2.67;0.60;;;;;;;;;;5034489;28;20429;-77
2024/01/18 09:27:12;;;;;;;0.50;0.50;;;;;;;;;;5056031;28;20025;-76
2024/01/18 09:29:37;;;;;;;0.25;0.25;;;;;;;;;;5057869;28;20036;-79
2024/01/18 09:32:06;;;;;;;2.65;0.60;;;;;;;;;;5048017;28;20159;-76
2024/01/18 09:34:31;;;;;;;0.47;0.47;;;;;;;;;;5050943;28;20039;-78
2024/01/18 09:36:57;;;;;;;0.80;0.50;;;;;;;;;;5056236;28;20101;-78
2024/01/18 09:39:22;;;;;;;0.43;0.43;;;;;;;;;;5057936;28;20040;-80
2024/01/18 09:41:52;;;;;;;0.30;0.30;;;;;;;;;;5060028;28;20029;-80
2024/01/18 09:44:25;;;;;;;0.50;0.50;;;;;;;;;;5059871;28;20041;-79
2024/01/18 09:46:52;;;;;;;0.30;0.30;;;;;;;;;;5057499;28;20044;-79
2024/01/18 09:49:17;;;;;;;1.30;0.60;;;;;;;;;;5059984;28;20044;-78
2024/01/18 09:51:44;;;;;;;0.40;0.40;;;;;;;;;;5060088;28;20032;-79
2024/01/18 09:54:09;;;;;;;0.47;0.47;;;;;;;;;;5055098;28;20033;-78
2024/01/18 09:56:38;;;;;;;0.40;0.40;;;;;;;;;;4981443;28;20129;-78
2024/01/18 09:59:05;;;;;;;0.50;0.50;;;;;;;;;;4994685;28;20045;-80
2024/01/18 10:01:31;;;;;;;0.30;0.30;;;;;;;;;;5055947;28;20029;-80
2024/01/18 10:03:56;;;;;;;0.40;0.40;;;;;;;;;;5057694;28;20119;-80
2024/01/18 10:06:22;;;;;;;0.30;0.30;;;;;;;;;;5057042;28;20049;-78
2024/01/18 10:08:49;;;;;;;0.40;0.40;;;;;;;;;;5057963;28;20409;-80
2024/01/18 10:11:14;;;;;;;0.60;0.60;;;;;;;;;;5057218;28;20032;-79
2024/01/18 10:13:55;;;;;;;0.25;0.25;;;;;;;;;;5056911;28;20037;-79
2024/01/18 10:16:28;;;;;;;0.40;0.40;;;;;;;;;;5032061;28;20037;-79
2024/01/18 10:18:55;;;;;;;0.43;0.43;;;;;;;;;;5055776;28;20044;-79
2024/01/18 10:21:22;;;;;;;1.20;0.50;;;;;;;;;;5055810;28;20040;-78
2024/01/18 10:23:48;;;;;;;0.70;0.70;;;;;;;;;;5056180;28;20378;-79
2024/01/18 10:26:13;;;;;;;0.65;0.50;;;;;;;;;;5080429;28;20028;-79
2024/01/18 10:28:38;;;;;;;0.90;0.70;;;;;;;;;;5052965;28;20045;-79
2024/01/18 10:31:04;;;;;;;0.40;0.40;;;;;;;;;;5054783;28;20508;-80
2024/01/18 10:33:29;;;;;;;0.32;0.32;;;;;;;;;;5055687;28;20044;-80
2024/01/18 10:35:55;;;;;;;0.50;0.50;;;;;;;;;;5060287;28;20128;-80
2024/01/18 10:38:29;;;;;;;0.88;0.50;;;;;;;;;;5059553;28;20045;-79
2024/01/18 10:40:54;;;;;;;;;;;;;;;;;;5057521;28;20032;-79
2024/01/18 10:43:20;;;;;;;0.68;0.68;;;;;;;;;;5057310;28;20026;-79
2024/01/18 10:45:45;;;;;;;1.10;0.68;;;;;;;;;;5055142;28;20041;-80
2024/01/18 10:48:11;;;;;;;0.50;0.50;;;;;;;;;;5055536;28;20139;-79
2024/01/18 10:50:37;;;;;;;2.97;0.50;;;;;;;;;;5057028;28;20060;-80
2024/01/18 10:53:03;;;;;;;0.60;0.60;;;;;;;;;;5055107;28;20036;-79
2024/01/18 10:55:28;;;;;;;0.70;0.70;;;;;;;;;;5055859;28;20060;-78
2024/01/18 10:57:54;;;;;;;0.60;0.60;;;;;;;;;;5059300;28;20045;-81
2024/01/18 11:00:19;;;;;;;0.60;0.60;;;;;;;;;;5059016;28;20123;-79
2024/01/18 11:02:45;;;;;;;0.50;0.50;;;;;;;;;;5056086;28;20033;-80
2024/01/18 11:05:18;;;;;;;0.60;0.60;;;;;;;;;;5041470;28;20198;-79
2024/01/18 11:07:45;;;;;;;0.50;0.50;;;;;;;;;;5058346;28;20679;-79
2024/01/18 11:10:12;;;;;;;0.40;0.40;;;;;;;;;;5053483;28;20178;-79
2024/01/18 11:12:42;;;;;;;1.65;0.50;;;;;;;;;;5056330;28;20432;-79
2024/01/18 11:15:10;;;;;;;0.40;0.40;;;;;;;;;;5055131;28;20049;-79
2024/01/18 11:17:42;;;;;;;0.40;0.40;;;;;;;;;;5059223;28;20061;-79
2024/01/18 11:20:09;;;;;;;0.40;0.40;;;;;;;;;;5058764;28;20068;-78
2024/01/18 11:22:35;;;;;;;0.40;0.40;;;;;;;;;;5057088;28;20052;-79
2024/01/18 11:25:05;;;;;;;0.30;0.30;;;;;;;;;;5059269;28;20038;-79
2024/01/18 11:27:37;;;;;;;0.40;0.40;;;;;;;;;;5058595;28;20124;-79
2024/01/18 11:30:03;;;;;;;0.40;0.40;;;;;;;;;;5058514;28;20043;-79
2024/01/18 11:32:28;;;;;;;0.32;0.32;;;;;;;;;;5058130;28;20040;-81
2024/01/18 11:35:10;;;;;;;0.40;0.40;;;;;;;;;;5058407;28;20474;-81
2024/01/18 11:37:36;;;;;;;0.30;0.30;;;;;;;;;;5055944;28;20056;-79
2024/01/18 11:40:02;;;;;;;0.52;0.43;;;;;;;;;;5056577;28;20040;-79
2024/01/18 11:42:29;;;;;;;0.30;0.30;;;;;;;;;;5058533;28;20044;-79
2024/01/18 11:45:13;;;;;;;0.30;0.30;;;;;;;;;;5056612;28;20124;-79
2024/01/18 11:47:39;;;;;;;0.35;0.35;;;;;;;;;;5058623;28;20123;-78
2024/01/18 11:50:06;;;;;;;0.45;0.40;;;;;;;;;;5055495;28;20037;-80
2024/01/18 11:52:33;;;;;;;0.50;0.50;;;;;;;;;;5054268;28;20120;-78
2024/01/18 11:54:59;;;;;;;0.30;0.30;;;;;;;;;;5054394;28;20152;-80
2024/01/18 11:57:26;;;;;;;0.30;0.30;;;;;;;;;;5056195;28;20041;-79
2024/01/18 11:59:53;;;;;;;0.40;0.40;;;;;;;;;;5057247;28;20399;-80
2024/01/18 12:02:20;;;;;;;0.43;0.43;;;;;;;;;;5058040;28;20047;-80
2024/01/18 12:04:45;;;;;;;0.38;0.38;;;;;;;;;;5042410;28;20056;-80
2024/01/18 12:07:11;;;;;;;0.40;0.40;;;;;;;;;;5059812;28;20037;-79
2024/01/18 12:09:36;;;;;;;0.50;0.50;;;;;;;;;;5057543;28;20304;-81
2024/01/18 12:12:03;;;;;;;0.30;0.30;;;;;;;;;;5058218;28;20033;-81
2024/01/18 12:14:29;;;;;;;1.13;1.13;;;;;;;;;;5057792;28;20077;-81
2024/01/18 12:16:56;;;;;;;0.60;0.60;;;;;;;;;;5058512;28;20116;-82
2024/01/18 12:19:34;;;;;;;0.50;0.50;;;;;;;;;;5058087;28;20052;-81
2024/01/18 12:22:06;;;;;;;0.40;0.40;;;;;;;;;;5055879;28;20033;-80
2024/01/18 12:24:32;;;;;;;0.30;0.30;;;;;;;;;;5056546;28;20037;-80
2024/01/18 12:26:58;;;;;;;0.40;0.40;;;;;;;;;;5056089;28;20033;-80
2024/01/18 12:29:23;;;;;;;0.40;0.40;;;;;;;;;;5057098;28;20661;-79
2024/01/18 12:31:52;;;;;;;0.50;0.50;;;;;;;;;;5055357;28;20052;-79
2024/01/18 12:34:21;;;;;;;2.53;0.52;;;;;;;;;;5054696;28;20101;-79
2024/01/18 12:36:46;;;;;;;0.30;0.30;;;;;;;;;;5036623;28;20052;-79
2024/01/18 12:39:13;;;;;;;0.30;0.30;;;;;;;;;;5052946;28;20401;-79
2024/01/18 12:41:38;;;;;;;0.40;0.40;;;;;;;;;;5057085;28;20037;-80
2024/01/18 12:44:07;;;;;;;0.30;0.30;;;;;;;;;;5054123;28;20386;-79
2024/01/18 12:46:34;;;;;;;0.40;0.40;;;;;;;;;;5054991;28;20452;-79
2024/01/18 12:49:00;;;;;;;0.47;0.47;;;;;;;;;;5055390;28;20045;-81
2024/01/18 12:51:27;;;;;;;0.45;0.45;;;;;;;;;;5037266;28;20132;-81
2024/01/18 12:53:52;;;;;;;0.45;0.45;;;;;;;;;;5055550;28;20079;-81
2024/01/18 12:56:17;;;;;;;6.57;5.47;;;;;;;;;;5053850;28;20029;-80
2024/01/18 12:58:45;;;;;;;2.10;1.90;;;;;;;;;;5053603;28;20083;-79
2024/01/18 13:01:26;;;;;;;1.73;1.63;;;;;;;;;;5053007;28;20049;-81
2024/01/18 13:03:52;;;;;;;0.50;0.50;;;;;;;;;;5049561;28;20044;-79
2024/01/18 13:06:17;;;;;;;0.60;0.60;;;;;;;;;;5052173;28;20029;-80
2024/01/18 13:08:43;;;;;;;0.45;0.45;;;;;;;;;;5054757;28;20033;-81
2024/01/18 13:11:08;;;;;;;0.30;0.30;;;;;;;;;;5055704;28;20081;-79
2024/01/18 13:13:34;;;;;;;1.33;0.30;;;;;;;;;;5056839;28;20040;-80
2024/01/18 13:15:59;;;;;;;0.40;0.40;;;;;;;;;;5056009;28;20041;-80
2024/01/18 13:18:27;;;;;;;0.30;0.30;;;;;;;;;;5053718;28;20116;-80
2024/01/18 13:20:53;;;;;;;0.43;0.43;;;;;;;;;;5058042;28;20037;-81
2024/01/18 13:23:20;;;;;;;0.50;0.32;;;;;;;;;;5058384;28;20127;-80
2024/01/18 13:25:45;;;;;;;0.45;0.45;;;;;;;;;;5057248;28;20139;-80
2024/01/18 13:28:11;;;;;;;0.30;0.30;;;;;;;;;;5055733;28;20053;-79
2024/01/18 13:30:36;;;;;;;0.40;0.40;;;;;;;;;;5054480;28;20045;-79
2024/01/18 13:33:02;;;;;;;0.47;0.47;;;;;;;;;;5055804;28;20405;-80
2024/01/18 13:35:28;;;;;;;0.20;0.20;;;;;;;;;;5054644;28;20037;-80
2024/01/18 13:37:53;;;;;;;0.47;0.47;;;;;;;;;;5056434;28;20036;-80
2024/01/18 13:40:18;;;;;;;0.43;0.43;;;;;;;;;;5057233;28;20528;-80
2024/01/18 13:42:44;;;;;;;0.43;0.43;;;;;;;;;;5057935;28;20077;-81
2024/01/18 13:45:09;;;;;;;0.30;0.30;;;;;;;;;;5057973;28;20032;-80
2024/01/18 13:47:35;;;;;;;0.40;0.40;;;;;;;;;;5057338;28;20040;-80
2024/01/18 13:50:01;;;;;;;0.30;0.30;;;;;;;;;;5057343;28;20037;-79
2024/01/18 13:52:28;;;;;;;0.30;0.30;;;;;;;;;;5057284;28;20417;-80
2024/01/18 13:54:54;;;;;;;0.30;0.30;;;;;;;;;;5057402;28;20519;-79
2024/01/18 13:57:19;;;;;;;0.32;0.32;;;;;;;;;;5038871;28;20049;-79
2024/01/18 13:59:45;;;;;;;0.30;0.30;;;;;;;;;;5058415;28;20064;-79
2024/01/18 14:02:10;;;;;;;0.50;0.50;;;;;;;;;;5055574;28;20419;-82
2024/01/18 14:04:36;;;;;;;0.82;0.52;;;;;;;;;;5039509;28;20044;-80
2024/01/18 14:07:01;;;;;;;0.50;0.50;;;;;;;;;;5056001;28;20033;-81
2024/01/18 14:09:26;;;;;;;0.50;0.50;;;;;;;;;;5035829;28;20043;-81
2024/01/18 14:11:52;;;;;;;0.30;0.30;;;;;;;;;;5031016;28;20037;-80
2024/01/18 14:14:17;;;;;;;0.30;0.30;;;;;;;;;;5056476;28;20044;-81
2024/01/18 14:16:42;;;;;;;0.50;0.50;;;;;;;;;;5055633;28;20124;-81
2024/01/18 14:19:09;;;;;;;0.40;0.40;;;;;;;;;;5057152;28;20055;-79
2024/01/18 14:21:34;;;;;;;1.13;0.73;;;;;;;;;;5055535;28;20095;-80
2024/01/18 14:23:59;;;;;;;0.40;0.40;;;;;;;;;;5055549;28;20041;-79
2024/01/18 14:26:25;;;;;;;0.40;0.40;;;;;;;;;;5058024;28;20057;-79
2024/01/18 14:28:50;;;;;;;0.40;0.40;;;;;;;;;;5056358;28;20045;-78
2024/01/18 14:31:16;;;;;;;0.30;0.30;;;;;;;;;;5054086;28;20430;-80
2024/01/18 14:33:41;;;;;;;0.52;0.40;;;;;;;;;;5055833;28;20132;-80
2024/01/18 14:36:07;;;;;;;0.40;0.40;;;;;;;;;;5056972;28;20048;-80